This is the latest recevied weather packets stored in our database for station/object ON4CCM-13. If no packets are shown the sender has not sent any weather packets the latest 10 day(s).
| Time | Temp. | Humidity | Pressure | Rain* | Wind** | Luminosity | Snow |
|---|---|---|---|---|---|---|---|
| 1777954868 | 11.11° C | 99% | 1013.2 hPa | 0 mm | - | - | - |
| 1777951242 | 11.67° C | 99% | 1013.3 hPa | 0 mm | - | - | - |
| 1777945266 | 12.22° C | 99% | 1013.5 hPa | 0 mm | - | - | - |
| 1777942247 | 12.78° C | 99% | 1013.9 hPa | 0.25 mm | - | - | - |
| 1777940435 | 12.78° C | 99% | 1013.9 hPa | 0.25 mm | - | - | - |
| 1777938623 | 12.78° C | 99% | 1014 hPa | 0 mm | - | - | - |
| 1777932644 | 13.33° C | 99% | 1014.6 hPa | 4.83 mm | - | - | - |
| 1777930834 | 13.89° C | 99% | 1015 hPa | 5.59 mm | - | - | - |
| 1777925460 | 14.44° C | 99% | 1015.1 hPa | 17.78 mm | - | - | - |
| 1777924856 | 14.44° C | 99% | 1014.8 hPa | 13.21 mm | - | - | - |
| 1777919444 | 15.56° C | 99% | 1014.4 hPa | 0 mm | - | - | - |
| 1777916484 | 16.11° C | 99% | 1014.4 hPa | 0 mm | - | - | - |
| 1777912864 | 15.56° C | 97% | 1014.5 hPa | 1.27 mm | - | - | - |
| 1777911639 | 15.56° C | 94% | 1014.6 hPa | 3.3 mm | - | - | - |
| 1777902638 | 21.11° C | 48% | 1015.2 hPa | 0 mm | - | - | - |
| 1777902034 | 21.11° C | 50% | 1015.2 hPa | 0 mm | - | - | - |
| 1777897867 | 20.56° C | 55% | 1015.5 hPa | 0 mm | - | - | - |
| 1777896683 | 20.56° C | 55% | 1015.6 hPa | 0 mm | - | - | - |
| 1777893038 | 19.44° C | 66% | 1016 hPa | 0 mm | - | - | - |
| 1777890021 | 19.44° C | 69% | 1016 hPa | 0 mm | - | - | - |
| 1777886456 | 17.78° C | 84% | 1016.2 hPa | 0 mm | - | - | - |
| 1777885854 | 17.22° C | 90% | 1016.1 hPa | 0 mm | - | - | - |
| 1777884646 | 16.67° C | 96% | 1016.1 hPa | 0 mm | - | - | - |
| 1777881628 | 15.56° C | 99% | 1015.8 hPa | 0 mm | - | - | - |
| 1777878669 | 15° C | 99% | 1015.4 hPa | 0 mm | - | - | - |
* Rain latest hour (hover to see other rain measurements)
** Current wind speed in m/s (hover to see current wind gust speed)